sensor_id;sensor_type;location;lat;lon;timestamp;pressure;altitude;pressure_sealevel;temperature;humidity
30516;BME280;17297;54.022;10.760;2023-02-14T00:00:04;103726.28;;;9.44;60.57
30516;BME280;17297;54.022;10.760;2023-02-14T00:02:33;103719.09;;;9.45;60.45
30516;BME280;17297;54.022;10.760;2023-02-14T00:04:59;103728.00;;;9.45;60.38
30516;BME280;17297;54.022;10.760;2023-02-14T00:07:24;103719.94;;;9.45;60.33
30516;BME280;17297;54.022;10.760;2023-02-14T00:09:49;103719.09;;;9.45;60.40
30516;BME280;17297;54.022;10.760;2023-02-14T00:12:14;103718.09;;;9.46;60.40
30516;BME280;17297;54.022;10.760;2023-02-14T00:14:40;103723.47;;;9.46;60.40
30516;BME280;17297;54.022;10.760;2023-02-14T00:17:24;103722.63;;;9.45;60.69
30516;BME280;17297;54.022;10.760;2023-02-14T00:19:49;103717.38;;;9.44;60.58
30516;BME280;17297;54.022;10.760;2023-02-14T00:22:14;103719.19;;;9.43;60.69
30516;BME280;17297;54.022;10.760;2023-02-14T00:24:40;103709.41;;;9.42;60.40
30516;BME280;17297;54.022;10.760;2023-02-14T00:27:05;103717.47;;;9.42;60.68
30516;BME280;17297;54.022;10.760;2023-02-14T00:29:31;103717.47;;;9.42;60.54
30516;BME280;17297;54.022;10.760;2023-02-14T00:31:57;103710.41;;;9.41;60.65
30516;BME280;17297;54.022;10.760;2023-02-14T00:34:23;103714.91;;;9.41;60.46
30516;BME280;17297;54.022;10.760;2023-02-14T00:36:48;103712.22;;;9.41;60.67
30516;BME280;17297;54.022;10.760;2023-02-14T00:39:15;103712.22;;;9.41;60.66
30516;BME280;17297;54.022;10.760;2023-02-14T00:41:41;103705.03;;;9.41;60.56
30516;BME280;17297;54.022;10.760;2023-02-14T00:44:08;103712.22;;;9.41;60.44
30516;BME280;17297;54.022;10.760;2023-02-14T00:46:35;103711.34;;;9.40;60.57
30516;BME280;17297;54.022;10.760;2023-02-14T00:49:00;103700.59;;;9.40;60.50
30516;BME280;17297;54.022;10.760;2023-02-14T00:51:26;103713.09;;;9.41;nan
30516;BME280;17297;54.022;10.760;2023-02-14T00:53:52;103702.44;;;9.40;60.62
30516;BME280;17297;54.022;10.760;2023-02-14T00:56:18;103703.28;;;9.40;60.59
30516;BME280;17297;54.022;10.760;2023-02-14T00:58:44;103705.13;;;9.40;60.55
30516;BME280;17297;54.022;10.760;2023-02-14T01:01:14;103700.72;;;9.39;60.43
30516;BME280;17297;54.022;10.760;2023-02-14T01:03:40;103708.78;;;9.39;60.47
30516;BME280;17297;54.022;10.760;2023-02-14T01:06:07;103704.41;;;9.38;60.49
30516;BME280;17297;54.022;10.760;2023-02-14T01:08:33;103704.41;;;9.38;60.66
30516;BME280;17297;54.022;10.760;2023-02-14T01:11:38;103699.97;;;9.37;60.55
30516;BME280;17297;54.022;10.760;2023-02-14T01:13:57;103701.81;;;9.36;60.71
30516;BME280;17297;54.022;10.760;2023-02-14T01:16:25;103699.13;;;9.36;60.63
30516;BME280;17297;54.022;10.760;2023-02-14T01:18:53;103688.50;;;9.35;60.73
30516;BME280;17297;54.022;10.760;2023-02-14T01:21:21;103694.72;;;9.35;60.88
30516;BME280;17297;54.022;10.760;2023-02-14T01:23:50;103686.75;;;9.34;60.70
30516;BME280;17297;54.022;10.760;2023-02-14T01:26:17;103694.81;;;9.34;60.87
30516;BME280;17297;54.022;10.760;2023-02-14T01:28:44;103687.75;;;9.33;60.82
30516;BME280;17297;54.022;10.760;2023-02-14T01:31:15;103691.41;;;9.32;60.83
30516;BME280;17297;54.022;10.760;2023-02-14T01:33:42;103692.28;;;9.32;60.56
30516;BME280;17297;54.022;10.760;2023-02-14T01:36:23;103695.91;;;9.31;60.66
30516;BME280;17297;54.022;10.760;2023-02-14T01:38:54;103692.28;;;9.32;60.64
30516;BME280;17297;54.022;10.760;2023-02-14T01:41:22;103688.72;;;9.32;60.44
30516;BME280;17297;54.022;10.760;2023-02-14T01:44:06;103686.91;;;9.32;60.44
30516;BME280;17297;54.022;10.760;2023-02-14T01:46:35;103686.03;;;9.32;60.63
30516;BME280;17297;54.022;10.760;2023-02-14T01:52:11;103681.63;;;9.31;60.59
30516;BME280;17297;54.022;10.760;2023-02-14T01:54:43;103687.00;;;9.31;60.51
30516;BME280;17297;54.022;10.760;2023-02-14T01:57:12;103686.13;;;9.30;60.57
30516;BME280;17297;54.022;10.760;2023-02-14T01:59:47;103683.59;;;9.29;60.54
30516;BME280;17297;54.022;10.760;2023-02-14T02:02:15;103680.91;;;9.29;60.42
30516;BME280;17297;54.022;10.760;2023-02-14T02:04:48;103680.91;;;9.29;60.37
30516;BME280;17297;54.022;10.760;2023-02-14T02:07:22;103679.06;;;9.29;nan
30516;BME280;17297;54.022;10.760;2023-02-14T02:09:53;103674.63;;;9.28;60.35
30516;BME280;17297;54.022;10.760;2023-02-14T02:12:22;103668.41;;;9.28;60.41
30516;BME280;17297;54.022;10.760;2023-02-14T02:14:49;103670.16;;;9.29;60.65
30516;BME280;17297;54.022;10.760;2023-02-14T02:20:47;103672.94;;;9.27;60.55
30516;BME280;17297;54.022;10.760;2023-02-14T02:24:00;103671.22;;;9.26;60.60
30516;BME280;17297;54.022;10.760;2023-02-14T02:26:37;103669.50;;;9.25;60.63
30516;BME280;17297;54.022;10.760;2023-02-14T02:29:23;103669.63;;;9.23;60.54
30516;BME280;17297;54.022;10.760;2023-02-14T02:32:03;103661.56;;;9.23;60.65
30516;BME280;17297;54.022;10.760;2023-02-14T02:40:11;103660.81;;;9.21;60.39
30516;BME280;17297;54.022;10.760;2023-02-14T02:43:03;103659.09;;;9.20;60.43
30516;BME280;17297;54.022;10.760;2023-02-14T02:45:46;103660.94;;;9.20;60.56
30516;BME280;17297;54.022;10.760;2023-02-14T02:48:39;103661.88;;;9.19;60.43
30516;BME280;17297;54.022;10.760;2023-02-14T02:51:11;103666.41;;;9.18;60.65
30516;BME280;17297;54.022;10.760;2023-02-14T02:54:26;103671.78;;;9.18;60.41
30516;BME280;17297;54.022;10.760;2023-02-14T02:56:56;103661.03;;;9.18;60.45
30516;BME280;17297;54.022;10.760;2023-02-14T02:59:31;103655.78;;;9.17;60.43
30516;BME280;17297;54.022;10.760;2023-02-14T03:02:30;103660.31;;;9.16;60.32
30516;BME280;17297;54.022;10.760;2023-02-14T03:05:01;103664.81;;;9.16;60.36
30516;BME280;17297;54.022;10.760;2023-02-14T03:07:32;103663.09;;;9.15;60.36
30516;BME280;17297;54.022;10.760;2023-02-14T03:10:16;103666.63;;;9.15;60.42
30516;BME280;17297;54.022;10.760;2023-02-14T03:18:15;103660.41;;;9.15;60.29
30516;BME280;17297;54.022;10.760;2023-02-14T03:23:37;103662.25;;;9.14;60.08
30516;BME280;17297;54.022;10.760;2023-02-14T03:28:52;103660.63;;;9.12;60.04
30516;BME280;17297;54.022;10.760;2023-02-14T03:31:37;103662.59;;;9.10;59.95
30516;BME280;17297;54.022;10.760;2023-02-14T03:34:16;103661.84;;;9.08;60.00
30516;BME280;17297;54.022;10.760;2023-02-14T03:37:14;103656.56;;;9.06;59.82
30516;BME280;17297;54.022;10.760;2023-02-14T03:39:46;103664.53;;;9.08;60.00
30516;BME280;17297;54.022;10.760;2023-02-14T03:42:26;103655.59;;;9.07;60.12
30516;BME280;17297;54.022;10.760;2023-02-14T03:44:55;103656.47;;;9.08;60.14
30516;BME280;17297;54.022;10.760;2023-02-14T03:47:25;103655.59;;;9.07;60.10
30516;BME280;17297;54.022;10.760;2023-02-14T03:49:59;103657.44;;;9.07;59.87
30516;BME280;17297;54.022;10.760;2023-02-14T03:52:27;103659.47;;;9.03;59.63
30516;BME280;17297;54.022;10.760;2023-02-14T03:54:56;103655.44;;;8.97;59.58
30516;BME280;17297;54.022;10.760;2023-02-14T03:57:30;103655.75;;;8.93;59.70
30516;BME280;17297;54.022;10.760;2023-02-14T03:59:56;103656.94;;;8.89;59.70
30516;BME280;17297;54.022;10.760;2023-02-14T04:02:35;103655.34;;;8.86;59.68
30516;BME280;17297;54.022;10.760;2023-02-14T04:05:07;103650.94;;;8.85;59.84
30516;BME280;17297;54.022;10.760;2023-02-14T04:07:45;103648.13;;;8.87;59.75
30516;BME280;17297;54.022;10.760;2023-02-14T04:10:10;103646.22;;;8.89;59.71
30516;BME280;17297;54.022;10.760;2023-02-14T04:12:36;103655.97;;;8.90;59.63
30516;BME280;17297;54.022;10.760;2023-02-14T04:15:01;103646.00;;;8.92;59.63
30516;BME280;17297;54.022;10.760;2023-02-14T04:17:26;103643.31;;;8.92;59.82
30516;BME280;17297;54.022;10.760;2023-02-14T04:20:10;103638.78;;;8.92;59.48
30516;BME280;17297;54.022;10.760;2023-02-14T04:22:36;103645.84;;;8.93;59.67
30516;BME280;17297;54.022;10.760;2023-02-14T04:25:01;103639.63;;;8.93;59.54
30516;BME280;17297;54.022;10.760;2023-02-14T04:27:26;103639.63;;;8.93;59.72
30516;BME280;17297;54.022;10.760;2023-02-14T04:29:52;103639.63;;;8.93;59.41
30516;BME280;17297;54.022;10.760;2023-02-14T04:32:19;103629.97;;;8.90;59.37
30516;BME280;17297;54.022;10.760;2023-02-14T04:34:45;103630.81;;;8.91;59.46
30516;BME280;17297;54.022;10.760;2023-02-14T04:37:11;103625.59;;;8.89;59.37
30516;BME280;17297;54.022;10.760;2023-02-14T04:39:37;103633.50;;;8.91;59.66
30516;BME280;17297;54.022;10.760;2023-02-14T04:42:04;103639.75;;;8.91;59.64
30516;BME280;17297;54.022;10.760;2023-02-14T04:44:29;103631.72;;;8.91;59.59
30516;BME280;17297;54.022;10.760;2023-02-14T04:46:55;103641.56;;;8.91;59.45
30516;BME280;17297;54.022;10.760;2023-02-14T04:49:20;103645.13;;;8.91;59.42
30516;BME280;17297;54.022;10.760;2023-02-14T04:51:46;103640.84;;;8.89;59.43
30516;BME280;17297;54.022;10.760;2023-02-14T04:54:12;103640.09;;;8.87;59.39
30516;BME280;17297;54.022;10.760;2023-02-14T04:56:37;103633.84;;;8.86;59.33
30516;BME280;17297;54.022;10.760;2023-02-14T04:59:03;103639.31;;;8.85;59.44
30516;BME280;17297;54.022;10.760;2023-02-14T05:01:28;103643.00;;;8.84;59.56
30516;BME280;17297;54.022;10.760;2023-02-14T05:03:54;103635.16;;;8.81;59.16
30516;BME280;17297;54.022;10.760;2023-02-14T05:06:19;103631.97;;;8.75;59.09
30516;BME280;17297;54.022;10.760;2023-02-14T05:08:45;103634.13;;;8.70;59.11
30516;BME280;17297;54.022;10.760;2023-02-14T05:11:10;103629.06;;;8.66;59.13
30516;BME280;17297;54.022;10.760;2023-02-14T05:13:35;103631.03;;;8.64;59.14
30516;BME280;17297;54.022;10.760;2023-02-14T05:16:01;103632.72;;;8.65;59.23
30516;BME280;17297;54.022;10.760;2023-02-14T05:18:26;103626.38;;;8.66;59.31
30516;BME280;17297;54.022;10.760;2023-02-14T05:20:53;103629.94;;;8.66;59.25
30516;BME280;17297;54.022;10.760;2023-02-14T05:23:20;103630.81;;;8.67;59.34
30516;BME280;17297;54.022;10.760;2023-02-14T05:25:50;103633.47;;;8.67;59.24
30516;BME280;17297;54.022;10.760;2023-02-14T05:28:19;103632.41;;;8.69;59.22
30516;BME280;17297;54.022;10.760;2023-02-14T05:30:45;103633.25;;;8.70;59.29
30516;BME280;17297;54.022;10.760;2023-02-14T05:33:10;103626.91;;;8.71;59.29
30516;BME280;17297;54.022;10.760;2023-02-14T05:35:35;103621.53;;;8.71;59.19
30516;BME280;17297;54.022;10.760;2023-02-14T05:38:01;103625.09;;;8.71;59.19
30516;BME280;17297;54.022;10.760;2023-02-14T05:40:27;103623.25;;;8.72;59.24
30516;BME280;17297;54.022;10.760;2023-02-14T05:42:53;103622.41;;;8.71;59.29
30516;BME280;17297;54.022;10.760;2023-02-14T05:45:20;103625.09;;;8.71;59.11
30516;BME280;17297;54.022;10.760;2023-02-14T05:47:46;103616.19;;;8.71;59.08
30516;BME280;17297;54.022;10.760;2023-02-14T05:50:12;103623.38;;;8.70;59.10
30516;BME280;17297;54.022;10.760;2023-02-14T05:52:37;103618.00;;;8.70;59.11
30516;BME280;17297;54.022;10.760;2023-02-14T05:55:03;103619.00;;;8.69;59.28
30516;BME280;17297;54.022;10.760;2023-02-14T05:57:28;103619.94;;;8.68;59.10
30516;BME280;17297;54.022;10.760;2023-02-14T05:59:54;103628.00;;;8.68;59.15
30516;BME280;17297;54.022;10.760;2023-02-14T06:02:19;103628.00;;;8.68;58.99
30516;BME280;17297;54.022;10.760;2023-02-14T06:04:44;103626.16;;;8.69;59.16
30516;BME280;17297;54.022;10.760;2023-02-14T06:07:10;103623.47;;;8.69;59.36
30516;BME280;17297;54.022;10.760;2023-02-14T06:09:35;103624.34;;;8.69;59.26
30516;BME280;17297;54.022;10.760;2023-02-14T06:12:00;103617.25;;;8.68;59.01
30516;BME280;17297;54.022;10.760;2023-02-14T06:14:26;103616.63;;;8.65;59.02
30516;BME280;17297;54.022;10.760;2023-02-14T06:16:51;103625.66;;;8.64;58.98
30516;BME280;17297;54.022;10.760;2023-02-14T06:19:17;103626.59;;;8.63;58.95
30516;BME280;17297;54.022;10.760;2023-02-14T06:21:42;103625.75;;;8.62;59.12
30516;BME280;17297;54.022;10.760;2023-02-14T06:24:07;103626.59;;;8.63;59.14
30516;BME280;17297;54.022;10.760;2023-02-14T06:26:33;103626.50;;;8.64;59.00
30516;BME280;17297;54.022;10.760;2023-02-14T06:29:01;103629.19;;;8.64;59.04
30516;BME280;17297;54.022;10.760;2023-02-14T06:31:26;103637.13;;;8.66;59.17
30516;BME280;17297;54.022;10.760;2023-02-14T06:33:52;103632.63;;;8.66;58.93
30516;BME280;17297;54.022;10.760;2023-02-14T06:36:19;103633.47;;;8.67;59.22
30516;BME280;17297;54.022;10.760;2023-02-14T06:38:44;103636.03;;;8.68;59.09
30516;BME280;17297;54.022;10.760;2023-02-14T06:41:12;103630.66;;;8.68;59.17
30516;BME280;17297;54.022;10.760;2023-02-14T06:43:39;103628.00;;;8.68;58.96
30516;BME280;17297;54.022;10.760;2023-02-14T06:46:05;103629.81;;;8.68;59.16
30516;BME280;17297;54.022;10.760;2023-02-14T06:48:31;103631.66;;;8.67;58.99
30516;BME280;17297;54.022;10.760;2023-02-14T06:50:56;103629.81;;;8.68;59.15
30516;BME280;17297;54.022;10.760;2023-02-14T06:53:22;103632.50;;;8.68;59.19
30516;BME280;17297;54.022;10.760;2023-02-14T06:55:47;103634.34;;;8.67;59.01
30516;BME280;17297;54.022;10.760;2023-02-14T06:58:13;103640.56;;;8.68;59.13
30516;BME280;17297;54.022;10.760;2023-02-14T07:00:39;103640.69;;;8.66;59.09
30516;BME280;17297;54.022;10.760;2023-02-14T07:03:05;103639.16;;;8.62;58.97
30516;BME280;17297;54.022;10.760;2023-02-14T07:05:31;103633.91;;;8.61;58.97
30516;BME280;17297;54.022;10.760;2023-02-14T07:07:57;103640.13;;;8.61;58.99
30516;BME280;17297;54.022;10.760;2023-02-14T07:10:22;103637.34;;;8.63;59.01
30516;BME280;17297;54.022;10.760;2023-02-14T07:12:47;103643.47;;;8.65;59.14
30516;BME280;17297;54.022;10.760;2023-02-14T07:15:13;103639.78;;;8.66;59.10
30516;BME280;17297;54.022;10.760;2023-02-14T07:17:38;103649.47;;;8.68;59.26
30516;BME280;17297;54.022;10.760;2023-02-14T07:20:05;103644.00;;;8.70;59.03
30516;BME280;17297;54.022;10.760;2023-02-14T07:22:31;103643.16;;;8.69;59.26
30516;BME280;17297;54.022;10.760;2023-02-14T07:24:57;103644.84;;;8.70;59.11
30516;BME280;17297;54.022;10.760;2023-02-14T07:27:22;103646.56;;;8.71;59.26
30516;BME280;17297;54.022;10.760;2023-02-14T07:29:48;103650.22;;;8.70;59.03
30516;BME280;17297;54.022;10.760;2023-02-14T07:32:13;103646.06;;;8.66;58.86
30516;BME280;17297;54.022;10.760;2023-02-14T07:34:38;103643.47;;;8.65;58.95
30516;BME280;17297;54.022;10.760;2023-02-14T07:37:04;103645.16;;;8.66;59.18
30516;BME280;17297;54.022;10.760;2023-02-14T07:39:29;103644.22;;;8.67;58.97
30516;BME280;17297;54.022;10.760;2023-02-14T07:41:54;103632.50;;;8.68;59.02
30516;BME280;17297;54.022;10.760;2023-02-14T07:44:20;103635.81;;;8.71;59.32
30516;BME280;17297;54.022;10.760;2023-02-14T07:46:45;103632.19;;;8.72;59.20
30516;BME280;17297;54.022;10.760;2023-02-14T07:49:11;103643.66;;;8.74;59.00
30516;BME280;17297;54.022;10.760;2023-02-14T07:51:36;103639.25;;;8.73;58.91
30516;BME280;17297;54.022;10.760;2023-02-14T07:54:02;103629.72;;;8.69;58.99
30516;BME280;17297;54.022;10.760;2023-02-14T07:56:27;103621.00;;;8.66;58.86
30516;BME280;17297;54.022;10.760;2023-02-14T07:58:53;103624.81;;;8.63;58.82
30516;BME280;17297;54.022;10.760;2023-02-14T08:01:19;103620.28;;;8.64;59.00
30516;BME280;17297;54.022;10.760;2023-02-14T08:03:45;103625.53;;;8.65;59.00
30516;BME280;17297;54.022;10.760;2023-02-14T08:06:14;103619.31;;;8.65;59.02
30516;BME280;17297;54.022;10.760;2023-02-14T08:08:40;103619.09;;;8.68;59.19
30516;BME280;17297;54.022;10.760;2023-02-14T08:11:05;103621.47;;;8.72;59.08
30516;BME280;17297;54.022;10.760;2023-02-14T08:13:31;103625.09;;;8.71;59.10
30516;BME280;17297;54.022;10.760;2023-02-14T08:15:56;103618.88;;;8.71;59.03
30516;BME280;17297;54.022;10.760;2023-02-14T08:18:35;103622.31;;;8.73;59.28
30516;BME280;17297;54.022;10.760;2023-02-14T08:21:01;103629.28;;;8.75;59.18
30516;BME280;17297;54.022;10.760;2023-02-14T08:23:27;103624.88;;;8.74;58.98
30516;BME280;17297;54.022;10.760;2023-02-14T08:25:53;103619.72;;;8.71;59.19
30516;BME280;17297;54.022;10.760;2023-02-14T08:28:19;103617.03;;;8.71;59.24
30516;BME280;17297;54.022;10.760;2023-02-14T08:30:44;103618.66;;;8.74;59.25
30516;BME280;17297;54.022;10.760;2023-02-14T08:33:11;103631.63;;;8.80;59.22
30516;BME280;17297;54.022;10.760;2023-02-14T08:35:37;103630.78;;;8.79;59.04
30516;BME280;17297;54.022;10.760;2023-02-14T08:38:03;103629.78;;;8.81;59.15
30516;BME280;17297;54.022;10.760;2023-02-14T08:40:29;103634.09;;;8.83;59.10
30516;BME280;17297;54.022;10.760;2023-02-14T08:42:54;103634.72;;;8.87;59.23
30516;BME280;17297;54.022;10.760;2023-02-14T08:45:20;103639.00;;;8.89;58.98
30516;BME280;17297;54.022;10.760;2023-02-14T08:47:46;103642.31;;;8.93;59.05
30516;BME280;17297;54.022;10.760;2023-02-14T08:50:16;103635.88;;;8.95;59.21
30516;BME280;17297;54.022;10.760;2023-02-14T08:52:42;103641.88;;;8.99;58.93
30516;BME280;17297;54.022;10.760;2023-02-14T08:55:08;103638.97;;;9.02;58.99
30516;BME280;17297;54.022;10.760;2023-02-14T08:57:34;103632.53;;;9.05;58.98
30516;BME280;17297;54.022;10.760;2023-02-14T08:59:59;103628.63;;;9.09;59.09
30516;BME280;17297;54.022;10.760;2023-02-14T09:02:25;103628.53;;;9.10;58.98
30516;BME280;17297;54.022;10.760;2023-02-14T09:04:50;103633.06;;;9.10;58.82
30516;BME280;17297;54.022;10.760;2023-02-14T09:07:15;103631.31;;;9.09;58.67
30516;BME280;17297;54.022;10.760;2023-02-14T09:09:41;103632.06;;;9.11;58.94
30516;BME280;17297;54.022;10.760;2023-02-14T09:12:08;103633.44;;;9.16;58.87
30516;BME280;17297;54.022;10.760;2023-02-14T09:14:35;103624.28;;;9.19;58.89
30516;BME280;17297;54.022;10.760;2023-02-14T09:17:01;103618.59;;;9.23;58.76
30516;BME280;17297;54.022;10.760;2023-02-14T09:19:33;103622.66;;;9.29;58.75
30516;BME280;17297;54.022;10.760;2023-02-14T09:21:59;103616.06;;;9.33;58.88
30516;BME280;17297;54.022;10.760;2023-02-14T09:24:25;103622.91;;;9.37;58.77
30516;BME280;17297;54.022;10.760;2023-02-14T09:26:52;103627.97;;;9.42;58.78
30516;BME280;17297;54.022;10.760;2023-02-14T09:29:18;103631.41;;;9.44;58.91
30516;BME280;17297;54.022;10.760;2023-02-14T09:31:43;103634.09;;;9.44;58.51
30516;BME280;17297;54.022;10.760;2023-02-14T09:34:08;103632.25;;;9.44;58.70
30516;BME280;17297;54.022;10.760;2023-02-14T09:36:52;103617.84;;;9.45;58.54
30516;BME280;17297;54.022;10.760;2023-02-14T09:39:37;103627.38;;;9.49;58.71
30516;BME280;17297;54.022;10.760;2023-02-14T09:44:54;103620.91;;;9.52;58.63
30516;BME280;17297;54.022;10.760;2023-02-14T09:49:59;103632.19;;;9.57;58.73
30516;BME280;17297;54.022;10.760;2023-02-14T09:52:27;103630.97;;;9.61;58.79
30516;BME280;17297;54.022;10.760;2023-02-14T09:54:57;103627.94;;;9.66;58.58
30516;BME280;17297;54.022;10.760;2023-02-14T09:57:34;103625.88;;;9.69;58.80
30516;BME280;17297;54.022;10.760;2023-02-14T10:00:28;103624.66;;;9.74;58.85
30516;BME280;17297;54.022;10.760;2023-02-14T10:05:54;103615.50;;;9.87;58.69
30516;BME280;17297;54.022;10.760;2023-02-14T10:08:35;103608.44;;;9.86;58.80
30516;BME280;17297;54.022;10.760;2023-02-14T10:11:07;103605.41;;;9.91;58.55
30516;BME280;17297;54.022;10.760;2023-02-14T10:13:42;103601.59;;;9.93;58.49
30516;BME280;17297;54.022;10.760;2023-02-14T10:16:16;103606.13;;;9.93;58.30
30516;BME280;17297;54.022;10.760;2023-02-14T10:19:03;103606.59;;;9.87;58.48
30516;BME280;17297;54.022;10.760;2023-02-14T10:21:41;103600.84;;;9.80;58.34
30516;BME280;17297;54.022;10.760;2023-02-14T10:24:16;103602.06;;;9.76;58.13
30516;BME280;17297;54.022;10.760;2023-02-14T10:26:44;103599.72;;;9.71;58.03
30516;BME280;17297;54.022;10.760;2023-02-14T10:29:15;103593.00;;;9.66;58.10
30516;BME280;17297;54.022;10.760;2023-02-14T10:31:46;103596.16;;;9.60;58.15
30516;BME280;17297;54.022;10.760;2023-02-14T10:34:32;103595.97;;;9.50;58.16
30516;BME280;17297;54.022;10.760;2023-02-14T10:40:20;103589.09;;;9.35;58.38
30516;BME280;17297;54.022;10.760;2023-02-14T10:42:54;103592.88;;;9.32;58.42
30516;BME280;17297;54.022;10.760;2023-02-14T10:45:30;103598.69;;;9.26;58.41
30516;BME280;17297;54.022;10.760;2023-02-14T10:48:13;103595.38;;;9.22;58.55
30516;BME280;17297;54.022;10.760;2023-02-14T10:56:01;103596.00;;;9.02;59.35
30516;BME280;17297;54.022;10.760;2023-02-14T10:58:34;103591.38;;;9.04;59.31
30516;BME280;17297;54.022;10.760;2023-02-14T11:01:05;103579.44;;;9.08;59.35
30516;BME280;17297;54.022;10.760;2023-02-14T11:03:33;103576.53;;;9.11;59.47
30516;BME280;17297;54.022;10.760;2023-02-14T11:06:00;103572.00;;;9.12;59.37
30516;BME280;17297;54.022;10.760;2023-02-14T11:08:40;103572.84;;;9.12;59.44
30516;BME280;17297;54.022;10.760;2023-02-14T11:13:49;103581.91;;;9.11;59.75
30516;BME280;17297;54.022;10.760;2023-02-14T11:16:34;103571.38;;;9.08;59.80
30516;BME280;17297;54.022;10.760;2023-02-14T11:19:18;103585.66;;;9.09;59.74
30516;BME280;17297;54.022;10.760;2023-02-14T11:21:46;103575.28;;;9.04;59.77
30516;BME280;17297;54.022;10.760;2023-02-14T11:24:36;103576.34;;;9.01;59.81
30516;BME280;17297;54.022;10.760;2023-02-14T11:27:05;103575.16;;;9.06;59.95
30516;BME280;17297;54.022;10.760;2023-02-14T11:29:41;103572.38;;;9.07;59.84
30516;BME280;17297;54.022;10.760;2023-02-14T11:32:08;103562.47;;;9.08;59.86
30516;BME280;17297;54.022;10.760;2023-02-14T11:34:39;103560.78;;;9.07;60.06
30516;BME280;17297;54.022;10.760;2023-02-14T11:37:23;103554.13;;;8.99;59.94
30516;BME280;17297;54.022;10.760;2023-02-14T11:39:50;103552.03;;;8.92;60.09
30516;BME280;17297;54.022;10.760;2023-02-14T11:42:40;103545.50;;;8.83;60.54
30516;BME280;17297;54.022;10.760;2023-02-14T11:45:10;103559.72;;;8.72;60.52
30516;BME280;17297;54.022;10.760;2023-02-14T11:50:35;103544.84;;;8.55;60.80
30516;BME280;17297;54.022;10.760;2023-02-14T11:53:02;103548.81;;;8.50;61.09
30516;BME280;17297;54.022;10.760;2023-02-14T11:55:32;103537.69;;;8.43;61.02
30516;BME280;17297;54.022;10.760;2023-02-14T11:57:59;103546.91;;;8.39;61.19
30516;BME280;17297;54.022;10.760;2023-02-14T12:00:27;103548.19;;;8.33;61.43
30516;BME280;17297;54.022;10.760;2023-02-14T12:02:56;103550.31;;;8.28;61.39
30516;BME280;17297;54.022;10.760;2023-02-14T12:05:29;103540.91;;;8.23;61.51
30516;BME280;17297;54.022;10.760;2023-02-14T12:07:57;103537.81;;;8.16;61.64
30516;BME280;17297;54.022;10.760;2023-02-14T12:10:35;103536.22;;;8.14;61.71
30516;BME280;17297;54.022;10.760;2023-02-14T12:15:49;103533.97;;;8.07;62.28
30516;BME280;17297;54.022;10.760;2023-02-14T12:18:37;103526.13;;;8.04;62.33
30516;BME280;17297;54.022;10.760;2023-02-14T12:24:12;103516.56;;;8.00;62.41
30516;BME280;17297;54.022;10.760;2023-02-14T12:29:16;103511.34;;;7.99;62.66
30516;BME280;17297;54.022;10.760;2023-02-14T12:31:42;103502.53;;;7.97;62.68
30516;BME280;17297;54.022;10.760;2023-02-14T12:34:10;103495.47;;;7.96;62.72
30516;BME280;17297;54.022;10.760;2023-02-14T12:36:50;103494.50;;;7.97;62.77
30516;BME280;17297;54.022;10.760;2023-02-14T12:50:54;103474.03;;;7.96;62.71
30516;BME280;17297;54.022;10.760;2023-02-14T12:53:38;103479.59;;;7.93;62.65
30516;BME280;17297;54.022;10.760;2023-02-14T12:58:55;103472.19;;;7.96;63.10
30516;BME280;17297;54.022;10.760;2023-02-14T13:01:46;103476.50;;;7.99;62.98
30516;BME280;17297;54.022;10.760;2023-02-14T13:04:53;103473.69;;;8.00;63.17
30516;BME280;17297;54.022;10.760;2023-02-14T13:07:48;103470.16;;;8.00;63.20
30516;BME280;17297;54.022;10.760;2023-02-14T13:10:31;103466.53;;;8.01;63.19
30516;BME280;17297;54.022;10.760;2023-02-14T13:18:44;103458.91;;;7.95;63.12
30516;BME280;17297;54.022;10.760;2023-02-14T13:21:13;103454.63;;;7.92;63.29
30516;BME280;17297;54.022;10.760;2023-02-14T13:23:42;103454.63;;;7.92;63.27
30516;BME280;17297;54.022;10.760;2023-02-14T13:26:23;103449.28;;;7.92;63.27
30516;BME280;17297;54.022;10.760;2023-02-14T13:29:04;103452.16;;;7.89;63.39
30516;BME280;17297;54.022;10.760;2023-02-14T13:31:31;103447.75;;;7.88;63.35
30516;BME280;17297;54.022;10.760;2023-02-14T13:34:00;103441.66;;;7.86;63.47
30516;BME280;17297;54.022;10.760;2023-02-14T13:36:28;103442.66;;;7.85;63.78
30516;BME280;17297;54.022;10.760;2023-02-14T13:38:56;103438.34;;;7.82;63.99
30516;BME280;17297;54.022;10.760;2023-02-14T13:41:25;103438.56;;;7.79;64.08
30516;BME280;17297;54.022;10.760;2023-02-14T13:43:55;103427.31;;;7.74;64.22
30516;BME280;17297;54.022;10.760;2023-02-14T13:51:51;103414.25;;;7.57;64.60
30516;BME280;17297;54.022;10.760;2023-02-14T13:56:52;103412.25;;;7.48;64.92
30516;BME280;17297;54.022;10.760;2023-02-14T13:59:32;103405.50;;;7.42;64.89
30516;BME280;17297;54.022;10.760;2023-02-14T14:04:52;103399.38;;;7.40;64.93
30516;BME280;17297;54.022;10.760;2023-02-14T14:07:27;103401.41;;;7.36;65.37
30516;BME280;17297;54.022;10.760;2023-02-14T14:09:58;103395.19;;;7.36;65.21
30516;BME280;17297;54.022;10.760;2023-02-14T14:20:44;103391.34;;;7.27;65.20
30516;BME280;17297;54.022;10.760;2023-02-14T14:23:27;103392.31;;;7.26;65.28
30516;BME280;17297;54.022;10.760;2023-02-14T14:25:53;103400.44;;;7.25;65.03
30516;BME280;17297;54.022;10.760;2023-02-14T14:28:21;103388.88;;;7.24;65.06
30516;BME280;17297;54.022;10.760;2023-02-14T14:30:48;103394.22;;;7.24;65.07
30516;BME280;17297;54.022;10.760;2023-02-14T14:33:16;103382.53;;;7.25;65.18
30516;BME280;17297;54.022;10.760;2023-02-14T14:36:08;103385.22;;;7.25;65.18
30516;BME280;17297;54.022;10.760;2023-02-14T14:38:48;103388.03;;;7.24;65.16